Platte Woods, Missouri
Current Conditions -  °F | °C
As of 2:54 AM on Wednesday 22 Oct 2014 (Local Time) from KMKC Reporting Station
Overcast Overcast  
Wind Chill: 59°   Ceiling: 6500
Heat Index: 59°   Visibility: 10mi
Dew Point: 45°   Wind: 7mph
Humidity: 60%   Direction: 130°SE
Pressure: 30.14"   Gusts: 18mph
Location:  39.2125°N, 94.6296°W
Report Text: KMKC 220754Z 13006G16KT 10SM OVC065 15/07 A3014 RMK AO2 SLP200 T01500072
Loading
Personal Weather Stations






























Interactive Weather Map
Tropical Storm Tracking
New forecast layout! Learn more

10-Day Weather Forecast

Advertisements
Track Severe Weather on mobile